Time;durP1;ratioP1;P1;durP2;ratioP2;P2;SDS_P1;SDS_P2;PMS_P1;PMS_P2;Temp;Humidity;BMP_temperature;BMP_pressure;BME280_temperature;BME280_humidity;BME280_pressure;Samples;Min_cycle;Max_cycle;Signal;HPM_P1;HPM_P2
2022/02/26 00:01:31;;;;;;;;;;;;;;;5.57;85.77;102624.59;5069411;28;19916;-77
2022/02/26 00:03:56;;;;;;;;;;;;;;;5.56;85.67;102622.81;5051479;28;19915;-77
2022/02/26 00:06:22;;;;;;;;;;;;;;;5.58;85.45;102623.81;5051485;28;20372;-77
2022/02/26 00:08:47;;;;;;;;;;;;;;;5.46;86.21;102631.47;5069460;28;19912;-77
2022/02/26 00:11:12;;;;;;;;;;;;;;;5.47;86.29;102635.78;5051541;28;19998;-77
2022/02/26 00:13:37;;;;;;;;;;;;;;;5.41;86.42;102629.41;5069503;28;19920;-77
2022/02/26 00:16:03;;;;;;;;;;;;;;;5.34;86.98;102637.38;5048156;28;19920;-77
2022/02/26 00:18:28;;;;;;;;;;;;;;;5.32;86.93;102641.47;5049591;28;19912;-77
2022/02/26 00:20:54;;;;;;;;;;;;;;;5.28;86.90;102639.47;5049821;28;19920;-78
2022/02/26 00:23:20;;;;;;;;;;;;;;;5.28;86.85;102640.38;5049390;28;19939;-77
2022/02/26 00:25:45;;;;;;;;;;;;;;;5.23;87.03;102641.72;5049222;28;19978;-77
2022/02/26 00:28:10;;;;;;;;;;;;;;;5.15;87.63;102654.66;5049324;28;19963;-77
2022/02/26 00:30:35;;;;;;;;;;;;;;;5.12;87.67;102664.59;5031518;28;19916;-77
2022/02/26 00:33:01;;;;;;;;;;;;;;;5.10;87.43;102672.09;5031559;28;19912;-77
2022/02/26 00:35:26;;;;;;;;;;;;;;;5.07;87.65;102676.09;5049781;28;19947;-78
2022/02/26 00:37:52;;;;;;;;;;;;;;;5.07;87.80;102679.50;5053527;28;19967;-77
2022/02/26 00:40:17;;;;;;;;;;;;;;;5.03;88.00;102686.78;5053605;28;19940;-77
2022/02/26 00:42:42;;;;;;;;;;;;;;;4.99;88.02;102698.41;5053094;28;19913;-77
2022/02/26 00:45:08;;;;;;;;;;;;;;;4.98;88.09;102704.22;5047563;28;19913;-78
2022/02/26 00:47:34;;;;;;;;;;;;;;;4.96;88.13;102702.34;5053767;28;19943;-76
2022/02/26 00:49:59;;;;;;;;;;;;;;;4.92;88.28;102720.69;5053643;28;20371;-76
2022/02/26 00:52:28;;;;;;;;;;;;;;;4.88;88.49;102724.66;5053948;28;19970;-75
2022/02/26 00:54:53;;;;;;;;;;;;;;;4.86;88.61;102733.81;5053625;28;19920;-76
2022/02/26 00:57:19;;;;;;;;;;;;;;;4.85;88.50;102738.78;5035906;28;19971;-76
2022/02/26 00:59:44;;;;;;;;;;;;;;;4.88;88.70;102737.31;5019240;28;19912;-76
2022/02/26 01:02:09;;;;;;;;;;;;;;;4.81;88.59;102745.28;5053513;28;19924;-76
2022/02/26 01:04:36;;;;;;;;;;;;;;;4.79;88.56;102746.81;5053588;28;19916;-76
2022/02/26 01:07:03;;;;;;;;;;;;;;;4.75;88.86;102749.88;5035348;28;19916;-76
2022/02/26 01:09:28;;;;;;;;;;;;;;;4.76;88.65;102751.69;5034948;28;19966;-75
2022/02/26 01:11:53;;;;;;;;;;;;;;;4.75;88.66;102759.19;5053358;28;20007;-75
2022/02/26 01:14:19;;;;;;;;;;;;;;;4.67;88.63;102767.88;5053321;28;19913;-76
2022/02/26 01:16:44;;;;;;;;;;;;;;;4.62;89.21;102770.09;5053272;28;20341;-75
2022/02/26 01:19:09;;;;;;;;;;;;;;;4.65;89.14;102769.44;5053024;28;20333;-75
2022/02/26 01:21:34;;;;;;;;;;;;;;;4.57;89.08;102779.00;5053107;28;19912;-76
2022/02/26 01:23:59;;;;;;;;;;;;;;;4.54;88.98;102781.31;5035465;28;19964;-76
2022/02/26 01:26:25;;;;;;;;;;;;;;;4.48;89.18;102788.47;5035194;28;19998;-75
2022/02/26 01:28:50;;;;;;;;;;;;;;;4.47;89.10;102798.50;5053043;28;19917;-76
2022/02/26 01:31:16;;;;;;;;;;;;;;;4.48;89.14;102796.09;5052049;28;19946;-76
2022/02/26 01:33:41;;;;;;;;;;;;;;;4.47;89.55;102801.91;5053301;28;19917;-77
2022/02/26 01:36:06;;;;;;;;;;;;;;;4.40;89.44;102799.69;5035163;28;19917;-76
2022/02/26 01:38:32;;;;;;;;;;;;;;;4.36;89.87;102810.38;5052633;28;19948;-75
2022/02/26 01:40:58;;;;;;;;;;;;;;;4.33;89.34;102804.19;5045550;28;19912;-76
2022/02/26 01:43:23;;;;;;;;;;;;;;;4.32;89.38;102810.91;5058569;28;20535;-76
2022/02/26 01:45:49;;;;;;;;;;;;;;;4.37;89.53;102811.25;5034717;28;19912;-76
2022/02/26 01:48:14;;;;;;;;;;;;;;;4.29;89.38;102802.19;5033645;28;19913;-75
2022/02/26 01:50:39;;;;;;;;;;;;;;;4.30;89.45;102804.84;5052796;28;20363;-76
2022/02/26 01:53:05;;;;;;;;;;;;;;;4.26;89.83;102804.47;5051429;28;19951;-75
2022/02/26 01:55:31;;;;;;;;;;;;;;;4.25;89.70;102811.22;5034871;28;19917;-76
2022/02/26 01:57:57;;;;;;;;;;;;;;;4.24;89.66;102823.78;5034482;28;19985;-76
2022/02/26 02:00:23;;;;;;;;;;;;;;;4.36;89.65;102822.16;5034426;28;20346;-75
2022/02/26 02:02:50;;;;;;;;;;;;;;;4.27;89.33;102819.81;5034760;28;20371;-75
2022/02/26 02:05:15;;;;;;;;;;;;;;;4.19;89.43;102827.59;5034383;28;19923;-75
2022/02/26 02:07:40;;;;;;;;;;;;;;;4.24;90.00;102829.69;5051733;28;19927;-74
2022/02/26 02:10:06;;;;;;;;;;;;;;;4.13;89.68;102822.94;5052075;28;19916;-76
2022/02/26 02:12:31;;;;;;;;;;;;;;;4.10;90.19;102832.84;5034299;28;19923;-75
2022/02/26 02:14:57;;;;;;;;;;;;;;;4.08;89.77;102833.47;5052240;28;19928;-76
2022/02/26 02:17:23;;;;;;;;;;;;;;;4.04;89.97;102839.97;5052184;28;19920;-76
2022/02/26 02:19:49;;;;;;;;;;;;;;;4.06;89.77;102838.47;5052038;28;20368;-76
2022/02/26 02:22:16;;;;;;;;;;;;;;;4.01;89.74;102844.78;5033876;28;19924;-77
2022/02/26 02:24:42;;;;;;;;;;;;;;;4.00;90.32;102843.03;5052019;28;19982;-75
2022/02/26 02:27:07;;;;;;;;;;;;;;;3.95;90.40;102841.78;5033921;28;20380;-76
2022/02/26 02:29:32;;;;;;;;;;;;;;;3.91;90.62;102852.47;5033817;28;19917;-75
2022/02/26 02:31:59;;;;;;;;;;;;;;;3.89;90.00;102860.69;5033870;28;19912;-76
2022/02/26 02:34:24;;;;;;;;;;;;;;;3.89;90.20;102851.47;5051844;28;19939;-77
2022/02/26 02:36:49;;;;;;;;;;;;;;;3.88;90.86;102857.31;5051702;28;20383;-76
2022/02/26 02:39:15;;;;;;;;;;;;;;;3.88;90.22;102864.91;5050218;28;19916;-76
2022/02/26 02:41:41;;;;;;;;;;;;;;;3.83;90.36;102878.88;5033682;28;19923;-75
2022/02/26 02:44:06;;;;;;;;;;;;;;;3.83;90.76;102877.97;5051580;28;19920;-76
2022/02/26 02:46:32;;;;;;;;;;;;;;;3.81;90.31;102874.41;5051459;28;19920;-76
2022/02/26 02:48:57;;;;;;;;;;;;;;;3.79;90.34;102881.03;5051271;28;19917;-76
2022/02/26 02:51:23;;;;;;;;;;;;;;;3.79;90.21;102886.09;5051330;28;19917;-76
2022/02/26 02:53:48;;;;;;;;;;;;;;;3.81;90.84;102893.03;5051792;28;19913;-76
2022/02/26 02:56:13;;;;;;;;;;;;;;;3.75;90.34;102892.56;5051432;28;19918;-75
2022/02/26 02:58:38;;;;;;;;;;;;;;;3.68;91.04;102902.09;5050823;28;20363;-76
2022/02/26 03:01:04;;;;;;;;;;;;;;;3.77;91.13;102905.34;5051196;28;20338;-76
2022/02/26 03:03:29;;;;;;;;;;;;;;;3.76;90.40;102907.00;5033583;28;20295;-76
2022/02/26 03:05:54;;;;;;;;;;;;;;;3.73;90.39;102911.81;5049957;28;19916;-75
2022/02/26 03:08:23;;;;;;;;;;;;;;;3.71;90.96;102920.94;5032994;28;19917;-76
2022/02/26 03:10:49;;;;;;;;;;;;;;;3.66;91.26;102922.22;5033283;28;19912;-76
2022/02/26 03:13:14;;;;;;;;;;;;;;;3.60;90.99;102924.28;5051000;28;19913;-76
2022/02/26 03:15:39;;;;;;;;;;;;;;;3.52;91.31;102917.72;5051107;28;20441;-76
2022/02/26 03:18:05;;;;;;;;;;;;;;;3.55;90.84;102925.53;5032992;28;20303;-76
2022/02/26 03:20:30;;;;;;;;;;;;;;;3.47;91.44;102924.06;5050889;28;19916;-76
2022/02/26 03:22:55;;;;;;;;;;;;;;;3.51;91.00;102921.00;5032825;28;19913;-76
2022/02/26 03:25:23;;;;;;;;;;;;;;;3.51;91.07;102927.72;5050793;28;20076;-75
2022/02/26 03:27:48;;;;;;;;;;;;;;;3.52;90.88;102939.59;5032864;28;19916;-76
2022/02/26 03:30:14;;;;;;;;;;;;;;;3.49;91.60;102944.44;5050480;28;19939;-76
2022/02/26 03:32:39;;;;;;;;;;;;;;;3.44;91.38;102940.63;5032816;28;19920;-76
2022/02/26 03:35:05;;;;;;;;;;;;;;;3.41;91.29;102951.38;5050805;28;19951;-77
2022/02/26 03:37:31;;;;;;;;;;;;;;;3.41;91.78;102953.91;5050647;28;20020;-77
2022/02/26 03:39:57;;;;;;;;;;;;;;;3.23;91.75;102959.13;5032498;28;19912;-76
2022/02/26 03:42:22;;;;;;;;;;;;;;;3.18;92.13;102965.47;5050448;28;19937;-76
2022/02/26 03:44:48;;;;;;;;;;;;;;;3.25;92.44;102973.69;5050472;28;19919;-76
2022/02/26 03:47:14;;;;;;;;;;;;;;;3.24;92.42;102971.91;5032498;28;20015;-76
2022/02/26 03:49:39;;;;;;;;;;;;;;;3.16;91.92;102974.56;5015745;28;20028;-77
2022/02/26 03:52:05;;;;;;;;;;;;;;;3.20;92.09;102980.00;5032574;28;19916;-77
2022/02/26 03:54:30;;;;;;;;;;;;;;;3.28;91.96;102981.53;5032304;28;20388;-77
2022/02/26 03:56:55;;;;;;;;;;;;;;;3.28;92.54;102985.69;5050537;28;19962;-76
2022/02/26 03:59:20;;;;;;;;;;;;;;;3.30;92.07;102990.13;5032026;28;20007;-76
2022/02/26 04:01:46;;;;;;;;;;;;;;;3.25;92.01;102991.41;5050205;28;19912;-76
2022/02/26 04:04:11;;;;;;;;;;;;;;;3.29;92.10;102992.53;5032313;28;20046;-76
2022/02/26 04:06:36;;;;;;;;;;;;;;;3.23;91.82;102995.47;5050085;28;20007;-76
2022/02/26 04:09:03;;;;;;;;;;;;;;;3.22;92.04;103001.25;5031963;28;19919;-76
2022/02/26 04:11:28;;;;;;;;;;;;;;;3.22;92.56;103007.97;5031517;28;20011;-76
2022/02/26 04:13:54;;;;;;;;;;;;;;;3.14;92.69;103014.94;5048759;28;19916;-75
2022/02/26 04:16:19;;;;;;;;;;;;;;;3.12;92.10;103010.50;5050189;28;19939;-75
2022/02/26 04:18:45;;;;;;;;;;;;;;;3.00;91.92;103012.91;5050072;28;19920;-76
2022/02/26 04:21:10;;;;;;;;;;;;;;;3.10;92.88;103020.50;5048859;28;19924;-76
2022/02/26 04:23:35;;;;;;;;;;;;;;;3.14;92.45;103024.16;5032195;28;19919;-75
2022/02/26 04:26:00;;;;;;;;;;;;;;;3.11;92.16;103041.63;5015524;28;19912;-76
2022/02/26 04:28:26;;;;;;;;;;;;;;;3.15;92.60;103047.06;5031926;28;20769;-75
2022/02/26 04:30:51;;;;;;;;;;;;;;;3.05;91.90;103047.06;5048548;28;19924;-74
2022/02/26 04:33:16;;;;;;;;;;;;;;;3.01;92.61;103044.13;5031885;28;20394;-75
2022/02/26 04:35:42;;;;;;;;;;;;;;;2.98;91.99;103046.38;5031804;28;19913;-76
2022/02/26 04:38:07;;;;;;;;;;;;;;;2.99;92.26;103061.69;5049668;28;19912;-75
2022/02/26 04:40:32;;;;;;;;;;;;;;;2.96;92.58;103053.88;5048336;28;19956;-75
2022/02/26 04:42:57;;;;;;;;;;;;;;;2.98;91.95;103053.97;5049739;28;19916;-76
2022/02/26 04:45:24;;;;;;;;;;;;;;;2.93;92.28;103068.78;5031656;28;19916;-76
2022/02/26 04:47:50;;;;;;;;;;;;;;;2.95;92.57;103073.97;5031656;28;19917;-77
2022/02/26 04:50:15;;;;;;;;;;;;;;;2.84;92.77;103068.00;5049430;28;19923;-75
2022/02/26 04:52:41;;;;;;;;;;;;;;;2.87;92.57;103075.84;5049672;28;20391;-74
2022/02/26 04:55:07;;;;;;;;;;;;;;;2.89;92.78;103084.44;5031724;28;19967;-76
2022/02/26 04:57:32;;;;;;;;;;;;;;;2.93;92.43;103081.44;5049488;28;20544;-76
2022/02/26 04:59:57;;;;;;;;;;;;;;;2.87;92.57;103093.56;5031374;28;19963;-76
2022/02/26 05:02:22;;;;;;;;;;;;;;;2.90;92.83;103092.94;5031610;28;19913;-76
2022/02/26 05:04:48;;;;;;;;;;;;;;;2.89;92.36;103098.75;5015068;28;19913;-75
2022/02/26 05:07:15;;;;;;;;;;;;;;;2.85;92.23;103102.66;5031566;28;19963;-77
2022/02/26 05:09:41;;;;;;;;;;;;;;;2.80;92.46;103106.41;5049251;28;19917;-75
2022/02/26 05:12:06;;;;;;;;;;;;;;;2.72;92.86;103114.13;5031369;28;19920;-76
2022/02/26 05:14:32;;;;;;;;;;;;;;;2.70;91.99;103115.59;5049719;28;19912;-75
2022/02/26 05:16:57;;;;;;;;;;;;;;;2.76;93.00;103124.63;5049327;28;19912;-75
2022/02/26 05:19:22;;;;;;;;;;;;;;;2.68;92.83;103134.81;5069211;28;19936;-76
2022/02/26 05:21:47;;;;;;;;;;;;;;;2.73;92.37;103137.00;5052342;28;19912;-75
2022/02/26 05:24:12;;;;;;;;;;;;;;;2.63;92.68;103144.56;5038632;28;20201;-76
2022/02/26 05:26:38;;;;;;;;;;;;;;;2.64;92.90;103143.78;5038367;28;19923;-75
2022/02/26 05:29:03;;;;;;;;;;;;;;;2.64;92.28;103146.31;5073101;28;19923;-75
2022/02/26 05:31:28;;;;;;;;;;;;;;;2.59;91.93;103154.25;5038466;28;19909;-76
2022/02/26 05:33:53;;;;;;;;;;;;;;;2.58;92.11;103152.47;5038289;28;20379;-75
2022/02/26 05:36:19;;;;;;;;;;;;;;;2.56;92.76;103153.97;5072940;28;20350;-75
2022/02/26 05:38:44;;;;;;;;;;;;;;;2.55;92.76;103163.22;5051248;28;19917;-76
2022/02/26 05:41:09;;;;;;;;;;;;;;;2.53;93.17;103163.81;5052791;28;19923;-76
2022/02/26 05:43:35;;;;;;;;;;;;;;;2.57;92.33;103176.00;5052807;28;20012;-76
2022/02/26 05:46:00;;;;;;;;;;;;;;;2.59;92.30;103182.97;5051442;28;20283;-75
2022/02/26 05:48:25;;;;;;;;;;;;;;;2.55;92.32;103182.53;5051163;28;19912;-76
2022/02/26 05:50:50;;;;;;;;;;;;;;;2.50;92.31;103179.63;5052539;28;19913;-75
2022/02/26 05:53:16;;;;;;;;;;;;;;;2.49;92.77;103187.94;5052581;28;19959;-76
2022/02/26 05:55:41;;;;;;;;;;;;;;;2.47;93.07;103196.13;5067968;28;19913;-76
2022/02/26 05:58:06;;;;;;;;;;;;;;;2.45;93.17;103190.06;5051177;28;20422;-77
2022/02/26 06:00:31;;;;;;;;;;;;;;;2.48;93.03;103191.22;5052159;28;19963;-76
2022/02/26 06:02:57;;;;;;;;;;;;;;;2.49;92.95;103192.13;5052462;28;19913;-77
2022/02/26 06:05:22;;;;;;;;;;;;;;;2.49;92.20;103194.63;5051151;28;19944;-75
2022/02/26 06:07:47;;;;;;;;;;;;;;;2.43;93.11;103197.50;5052039;28;19920;-76
2022/02/26 06:10:12;;;;;;;;;;;;;;;2.46;92.07;103205.38;5035063;28;19958;-77
2022/02/26 06:12:38;;;;;;;;;;;;;;;2.44;92.59;103206.84;5058831;28;19913;-77
2022/02/26 06:15:03;;;;;;;;;;;;;;;2.49;91.94;103212.34;5052577;28;19917;-77
2022/02/26 06:17:29;;;;;;;;;;;;;;;2.41;92.07;103221.78;5034496;28;20033;-78
2022/02/26 06:19:55;;;;;;;;;;;;;;;2.46;92.01;103229.75;5034654;28;19919;-78
2022/02/26 06:22:20;;;;;;;;;;;;;;;2.50;91.96;103236.84;5018380;28;20316;-77
2022/02/26 06:24:45;;;;;;;;;;;;;;;2.42;92.80;103238.69;5052898;28;19913;-77
2022/02/26 06:27:10;;;;;;;;;;;;;;;2.47;92.87;103249.22;5052509;28;20003;-78
2022/02/26 06:29:36;;;;;;;;;;;;;;;2.42;93.01;103248.81;5033960;28;19927;-77
2022/02/26 06:32:01;;;;;;;;;;;;;;;2.42;92.03;103261.44;5052364;28;19909;-78
2022/02/26 06:34:27;;;;;;;;;;;;;;;2.44;92.11;103259.94;5033948;28;19912;-77
2022/02/26 06:36:52;;;;;;;;;;;;;;;2.42;92.24;103263.97;5052340;28;20264;-77
2022/02/26 06:39:17;;;;;;;;;;;;;;;2.44;92.05;103267.53;5017509;28;19920;-77
2022/02/26 06:41:43;;;;;;;;;;;;;;;2.49;92.81;103268.81;5052122;28;19913;-76
2022/02/26 06:44:08;;;;;;;;;;;;;;;2.47;92.60;103275.38;5051947;28;19995;-77
2022/02/26 06:46:37;;;;;;;;;;;;;;;2.52;91.81;103285.94;5072137;28;19924;-78
2022/02/26 06:49:03;;;;;;;;;;;;;;;2.53;91.85;103288.56;5057320;28;19919;-78
2022/02/26 06:51:29;;;;;;;;;;;;;;;2.57;91.59;103294.81;5051606;28;19913;-78
2022/02/26 06:53:54;;;;;;;;;;;;;;;2.57;91.61;103287.25;5051569;28;19912;-78
2022/02/26 06:56:19;;;;;;;;;;;;;;;2.63;91.51;103297.91;5033555;28;20588;-77
2022/02/26 06:58:44;;;;;;;;;;;;;;;2.67;91.51;103292.38;5050922;28;19938;-77
2022/02/26 07:01:10;;;;;;;;;;;;;;;2.67;91.34;103310.94;5033568;28;20058;-77
2022/02/26 07:03:35;;;;;;;;;;;;;;;2.65;91.81;103306.50;5051258;28;19916;-77
2022/02/26 07:06:00;;;;;;;;;;;;;;;2.69;92.10;103321.19;5051212;28;19923;-77
2022/02/26 07:08:26;;;;;;;;;;;;;;;2.77;91.64;103318.63;5051167;28;19962;-77
2022/02/26 07:10:52;;;;;;;;;;;;;;;2.83;91.05;103318.25;5033157;28;20439;-77
2022/02/26 07:13:17;;;;;;;;;;;;;;;2.92;91.50;103324.16;5065534;28;20027;-78
2022/02/26 07:15:43;;;;;;;;;;;;;;;2.95;91.56;103322.78;5052404;28;19920;-78
2022/02/26 07:18:09;;;;;;;;;;;;;;;3.19;90.73;103326.59;5070426;28;20368;-77
2022/02/26 07:20:35;;;;;;;;;;;;;;;3.35;89.50;103333.16;5035515;28;19924;-77
2022/02/26 07:23:00;;;;;;;;;;;;;;;3.48;89.62;103336.00;5070399;28;19920;-77
2022/02/26 07:25:25;;;;;;;;;;;;;;;3.53;89.51;103341.47;5052290;28;20731;-77
2022/02/26 07:27:51;;;;;;;;;;;;;;;3.69;88.29;103348.00;5052239;28;20010;-77
2022/02/26 07:30:16;;;;;;;;;;;;;;;3.79;88.04;103350.59;5070106;28;20023;-77
2022/02/26 07:32:41;;;;;;;;;;;;;;;4.01;87.19;103360.91;5070122;28;19975;-77
2022/02/26 07:35:07;;;;;;;;;;;;;;;4.23;86.35;103356.94;5052280;28;19919;-77
2022/02/26 07:37:32;;;;;;;;;;;;;;;4.36;86.03;103377.47;5035485;28;19955;-77
2022/02/26 07:39:57;;;;;;;;;;;;;;;4.51;85.18;103369.50;5069889;28;19917;-77
2022/02/26 07:42:23;;;;;;;;;;;;;;;4.64;84.38;103371.41;5052048;28;19939;-76
2022/02/26 07:44:48;;;;;;;;;;;;;;;4.66;84.00;103363.19;5069935;28;19970;-77
2022/02/26 07:47:13;;;;;;;;;;;;;;;4.80;83.68;103365.22;5035453;28;19924;-77
2022/02/26 07:49:38;;;;;;;;;;;;;;;4.95;83.08;103371.56;5048466;28;19912;-77
2022/02/26 07:52:04;;;;;;;;;;;;;;;5.23;82.39;103365.41;5032748;28;19916;-77
2022/02/26 07:54:29;;;;;;;;;;;;;;;5.28;82.05;103366.69;5032653;28;19913;-76
2022/02/26 07:56:54;;;;;;;;;;;;;;;5.49;81.71;103370.06;5032627;28;19970;-78
2022/02/26 07:59:19;;;;;;;;;;;;;;;5.56;80.70;103365.59;5050146;28;20513;-78
2022/02/26 08:01:45;;;;;;;;;;;;;;;5.79;80.56;103370.84;5049018;28;20335;-77
2022/02/26 08:04:11;;;;;;;;;;;;;;;5.80;79.58;103382.81;5032308;28;19917;-77
2022/02/26 08:06:36;;;;;;;;;;;;;;;6.11;79.16;103383.53;5042596;28;19920;-77
2022/02/26 08:09:01;;;;;;;;;;;;;;;6.24;77.91;103387.19;5069905;28;20016;-77
2022/02/26 08:11:30;;;;;;;;;;;;;;;6.33;78.25;103394.63;5069927;28;19931;-77
2022/02/26 08:13:56;;;;;;;;;;;;;;;6.51;77.14;103398.59;5069843;28;19998;-78
2022/02/26 08:16:23;;;;;;;;;;;;;;;6.42;76.21;103401.31;5052155;28;20003;-77
2022/02/26 08:18:48;;;;;;;;;;;;;;;6.54;76.55;103404.78;5051785;28;19908;-77
2022/02/26 08:21:13;;;;;;;;;;;;;;;6.76;76.03;103414.94;5068773;28;19924;-78
2022/02/26 08:23:38;;;;;;;;;;;;;;;7.09;74.74;103413.28;5051793;28;19975;-77
2022/02/26 08:26:05;;;;;;;;;;;;;;;7.26;74.68;103420.50;5051806;28;20346;-76
2022/02/26 08:28:31;;;;;;;;;;;;;;;7.25;74.06;103423.84;5069851;28;19965;-78
2022/02/26 08:30:56;;;;;;;;;;;;;;;7.31;74.24;103426.81;5069868;28;19916;-78
2022/02/26 08:33:21;;;;;;;;;;;;;;;7.52;72.07;103428.41;5069954;28;20391;-77
2022/02/26 08:35:46;;;;;;;;;;;;;;;7.92;72.26;103427.06;5069932;28;19920;-77
2022/02/26 08:38:12;;;;;;;;;;;;;;;7.75;71.41;103425.88;5051911;28;19916;-78
2022/02/26 08:40:37;;;;;;;;;;;;;;;8.24;71.06;103435.38;5069542;28;19923;-78
2022/02/26 08:43:02;;;;;;;;;;;;;;;8.29;69.98;103440.00;5051662;28;19922;-78
2022/02/26 08:45:27;;;;;;;;;;;;;;;8.61;67.72;103430.34;5051728;28;19962;-78
2022/02/26 08:47:53;;;;;;;;;;;;;;;8.96;67.35;103435.31;5051569;28;20023;-78
2022/02/26 08:50:21;;;;;;;;;;;;;;;8.85;66.50;103442.22;5069455;28;19969;-77
2022/02/26 08:52:46;;;;;;;;;;;;;;;8.97;67.57;103448.19;5069581;28;19916;-77
2022/02/26 08:55:11;;;;;;;;;;;;;;;9.27;66.20;103442.53;5069546;28;19917;-76
2022/02/26 08:57:37;;;;;;;;;;;;;;;9.39;65.18;103445.94;5037182;28;19923;-75
2022/02/26 09:00:03;;;;;;;;;;;;;;;9.80;63.76;103441.81;5038623;28;19917;-75
2022/02/26 09:02:29;;;;;;;;;;;;;;;9.76;63.33;103450.09;5073571;28;19912;-75
2022/02/26 09:04:54;;;;;;;;;;;;;;;9.73;63.24;103455.00;5073606;28;20363;-76
2022/02/26 09:07:19;;;;;;;;;;;;;;;10.35;62.01;103457.34;5055448;28;20142;-75
2022/02/26 09:09:44;;;;;;;;;;;;;;;10.66;61.70;103460.13;5055403;28;19958;-76
2022/02/26 09:12:10;;;;;;;;;;;;;;;10.70;60.40;103464.63;5055392;28;19916;-76
2022/02/26 09:14:35;;;;;;;;;;;;;;;10.70;58.90;103472.31;5055611;28;19916;-76
2022/02/26 09:17:00;;;;;;;;;;;;;;;12.30;55.96;103470.69;5035235;28;19916;-75
2022/02/26 09:19:25;;;;;;;;;;;;;;;16.75;43.94;103449.25;5053130;28;20376;-76
2022/02/26 09:21:51;;;;;;;;;;;;;;;18.70;39.35;103447.03;5053325;28;20430;-76
2022/02/26 09:24:16;;;;;;;;;;;;;;;20.75;34.87;103433.84;5053222;28;19927;-76
2022/02/26 09:26:41;;;;;;;;;;;;;;;19.97;34.96;103441.66;5053016;28;19924;-76
2022/02/26 09:29:07;;;;;;;;;;;;;;;20.57;34.08;103453.44;5052978;28;19912;-76
2022/02/26 09:31:32;;;;;;;;;;;;;;;19.97;34.54;103447.75;5036483;28;20434;-76
2022/02/26 09:33:57;;;;;;;;;;;;;;;22.53;30.37;103449.81;5055107;28;19966;-77
2022/02/26 09:36:22;;;;;;;;;;;;;;;21.74;31.35;103447.81;5055001;28;20335;-76
2022/02/26 09:38:48;;;;;;;;;;;;;;;22.71;29.52;103444.81;5072937;28;20007;-76
2022/02/26 09:41:13;;;;;;;;;;;;;;;22.63;29.77;103446.44;5055112;28;19916;-77
2022/02/26 09:43:38;;;;;;;;;;;;;;;20.57;31.54;103453.44;5054814;28;19912;-76
2022/02/26 09:46:04;;;;;;;;;;;;;;;22.16;29.61;103449.31;5054644;28;19916;-76
2022/02/26 09:48:30;;;;;;;;;;;;;;;21.84;30.96;103450.56;5072636;28;19912;-78
2022/02/26 09:50:55;;;;;;;;;;;;;;;23.38;28.83;103452.50;5072399;28;19922;-76
2022/02/26 09:53:21;;;;;;;;;;;;;;;22.76;29.55;103461.41;5072702;28;20330;-76
2022/02/26 09:55:47;;;;;;;;;;;;;;;23.02;28.73;103462.59;5054671;28;19912;-77
2022/02/26 09:58:14;;;;;;;;;;;;;;;23.08;28.48;103458.28;5072476;28;19945;-77
2022/02/26 10:00:39;;;;;;;;;;;;;;;24.46;26.46;103458.47;5054248;28;19962;-76
2022/02/26 10:03:05;;;;;;;;;;;;;;;23.30;28.80;103464.63;5037958;28;19916;-77
2022/02/26 10:05:30;;;;;;;;;;;;;;;25.76;26.35;103447.31;5072516;28;20371;-76
2022/02/26 10:07:56;;;;;;;;;;;;;;;25.39;25.84;103457.00;5053502;28;19927;-75
2022/02/26 10:10:24;;;;;;;;;;;;;;;26.34;25.08;103457.72;5037185;28;19966;-76
2022/02/26 10:12:51;;;;;;;;;;;;;;;25.90;25.15;103463.94;5072262;28;19912;-75
2022/02/26 10:15:24;;;;;;;;;;;;;;;26.16;25.21;103464.78;5072325;28;19908;-76
2022/02/26 10:18:09;;;;;;;;;;;;;;;26.03;25.09;103473.59;5054980;28;20341;-76
2022/02/26 10:20:42;;;;;;;;;;;;;;;25.96;23.80;103467.47;5072418;28;19916;-77
2022/02/26 10:23:08;;;;;;;;;;;;;;;27.95;22.14;103459.28;5054533;28;19999;-77
2022/02/26 10:25:34;;;;;;;;;;;;;;;26.33;23.01;103469.09;5054238;28;20283;-77
2022/02/26 10:28:00;;;;;;;;;;;;;;;26.62;23.08;103469.03;5071996;28;20664;-76
2022/02/26 10:30:34;;;;;;;;;;;;;;;28.42;20.58;103460.47;5053867;28;20379;-77
2022/02/26 10:33:07;;;;;;;;;;;;;;;27.42;22.47;103465.03;5072120;28;19916;-78
2022/02/26 10:35:40;;;;;;;;;;;;;;;29.44;19.80;103463.41;5053905;28;19919;-79
2022/02/26 10:38:12;;;;;;;;;;;;;;;28.24;20.86;103457.19;5071869;28;19958;-78
2022/02/26 10:40:54;;;;;;;;;;;;;;;25.19;24.83;103479.66;5053521;28;19912;-76
2022/02/26 10:43:39;;;;;;;;;;;;;;;26.72;23.03;103474.25;5037236;28;19927;-76
2022/02/26 10:46:15;;;;;;;;;;;;;;;27.79;20.67;103465.53;5071744;28;19965;-77
2022/02/26 10:48:41;;;;;;;;;;;;;;;28.93;20.13;103458.91;5071597;28;20528;-77
2022/02/26 10:51:12;;;;;;;;;;;;;;;29.22;19.38;103462.00;5071385;28;19922;-78
2022/02/26 10:53:41;;;;;;;;;;;;;;;29.62;18.37;103463.13;5053328;28;20003;-77
2022/02/26 10:56:06;;;;;;;;;;;;;;;27.90;20.46;103472.47;5071711;28;19912;-78
2022/02/26 10:58:32;;;;;;;;;;;;;;;29.12;19.24;103466.56;5054920;28;19919;-77
2022/02/26 11:01:02;;;;;;;;;;;;;;;29.50;18.01;103458.88;5016899;28;19912;-77
2022/02/26 11:03:27;;;;;;;;;;;;;;;27.91;20.32;103466.31;5051091;28;20015;-79
2022/02/26 11:05:53;;;;;;;;;;;;;;;30.56;18.48;103464.81;5051239;28;20003;-78
2022/02/26 11:08:19;;;;;;;6.50;3.13;;;;;;;27.30;21.12;103469.50;5049668;28;20421;-77
2022/02/26 11:10:45;;;;;;;6.18;2.88;;;;;;;27.37;21.40;103474.72;5032459;28;20256;-77
2022/02/26 11:13:12;;;;;;;5.93;3.00;;;;;;;29.68;18.92;103466.53;5032768;28;20194;-80
2022/02/26 11:15:38;;;;;;;5.75;2.22;;;;;;;27.83;19.75;103465.56;5067515;28;20193;-77
2022/02/26 11:18:05;;;;;;;4.43;2.30;;;;;;;28.39;19.30;103467.53;5055948;28;20189;-77
2022/02/26 11:20:33;;;;;;;5.18;2.38;;;;;;;29.14;18.93;103466.53;5059798;28;20196;-78
2022/02/26 11:22:59;;;;;;;4.40;2.53;;;;;;;28.97;18.59;103465.91;5052144;28;20846;-77
2022/02/26 11:25:25;;;;;;;4.95;3.00;;;;;;;28.72;19.27;103467.13;5040759;28;20208;-78
2022/02/26 11:27:51;;;;;;;5.97;3.83;;;;;;;29.71;19.00;103465.59;5032227;28;20747;-76
2022/02/26 11:30:21;;;;;;;4.25;2.40;;;;;;;31.19;17.09;103463.34;5032231;28;20272;-76
2022/02/26 11:32:47;;;;;;;4.53;2.70;;;;;;;31.28;17.26;103468.44;5052163;28;20209;-75
2022/02/26 11:35:26;;;;;;;5.68;2.63;;;;;;;30.29;18.44;103473.31;5050129;28;20548;-76
2022/02/26 11:37:54;;;;;;;3.28;2.05;;;;;;;31.22;17.15;103463.31;5050456;28;20185;-75
2022/02/26 11:40:19;;;;;;;5.32;2.17;;;;;;;32.09;15.43;103458.34;5049981;28;20552;-75
2022/02/26 11:42:46;;;;;;;4.25;2.10;;;;;;;29.95;17.44;103475.72;5049979;28;20197;-76
2022/02/26 11:45:18;;;;;;;4.82;3.05;;;;;;;32.29;15.25;103462.19;5049627;28;20181;-76
2022/02/26 11:47:54;;;;;;;5.07;3.03;;;;;;;30.18;16.44;103470.88;5050189;28;20675;-76
2022/02/26 11:50:25;;;;;;;5.05;3.88;;;;;;;31.15;17.18;103472.25;5049927;28;20185;-77
2022/02/26 11:52:56;;;;;;;3.78;2.65;;;;;;;32.50;14.67;103464.19;5031853;28;20579;-77
2022/02/26 11:56:04;;;;;;;3.38;2.42;;;;;;;32.48;14.83;103467.81;5031916;28;20652;-76
2022/02/26 11:58:34;;;;;;;6.63;2.70;;;;;;;31.78;16.87;103468.06;5049704;28;20256;-77
2022/02/26 12:01:08;;;;;;;6.32;2.47;;;;;;;32.55;16.14;103470.25;5049425;28;20710;-74
2022/02/26 12:03:49;;;;;;;3.75;2.28;;;;;;;33.55;15.37;103474.09;5031623;28;20176;-75
2022/02/26 12:06:16;;;;;;;4.80;2.50;;;;;;;30.80;17.26;103486.31;5031809;28;20542;-76
2022/02/26 12:08:53;;;;;;;3.92;2.20;;;;;;;30.98;17.20;103477.97;5049402;28;20200;-75
2022/02/26 12:11:30;;;;;;;3.50;2.28;;;;;;;29.74;16.99;103482.25;5049580;28;20342;-77
2022/02/26 12:14:06;;;;;;;3.38;1.80;;;;;;;31.92;15.50;103477.38;5015744;28;20193;-80
2022/02/26 12:16:35;;;;;;;4.47;2.15;;;;;;;32.02;15.96;103476.22;5032592;28;20569;-78
2022/02/26 12:19:08;;;;;;;3.53;2.17;;;;;;;32.39;16.17;103468.97;5031644;28;20280;-80
2022/02/26 12:21:36;;;;;;;4.18;2.40;;;;;;;33.42;16.19;103471.94;5049591;28;20205;-77
2022/02/26 12:24:14;;;;;;;3.42;2.10;;;;;;;32.03;14.75;103480.59;5049803;28;20268;-77
2022/02/26 12:26:57;;;;;;;4.05;2.40;;;;;;;29.56;17.33;103482.59;5031796;28;20216;-77
2022/02/26 12:29:39;;;;;;;5.65;2.70;;;;;;;30.34;17.61;103482.88;5049399;28;20173;-76
2022/02/26 12:32:21;;;;;;;3.85;2.20;;;;;;;31.77;15.76;103479.56;5030549;28;20213;-76